Buras, Louisiana
Current Conditions -  °F | °C
As of 11:45 AM on Monday 24 Nov 2014 (Local Time) from K1B7 Reporting Station
Clear Clear  
Wind Chill: 72°   Ceiling: Unl
Heat Index: 72°   Visibility: 9mi
Dew Point: 64°   Wind: 5mph
Humidity: 78%   Direction: 350°N
Pressure: 29.85"   Gusts: NA
Location:  29.35°N, 89.52°W
Report Text: K1B7 241745Z 35004KT 9SM SKC 22/18 A2985
Loading
Personal Weather Stations






























Interactive Weather Map New forecast layout! Learn more

10-Day Weather Forecast

Advertisements
Track Severe Weather on mobile